コロンボ の空港の天気 - METARとTAF

バンダラナイケ国際空港 ( VCBI / CMB ) - スリランカ コロンボ
飛行場実況気象(Metar)
観測時間01/20 22:40 +0530 (01/20 17:10 UTC)
風向・風速北北東 4m/s
視程10km以上
天気現象
全天の4割程度の雲 雲底高度 1220m
気温25℃
湿度83%
気圧1012hPa
METARVCBI 201710Z 02007KT 9999 SCT040 25/22 Q1012 NOSIG
過去の天気等 Google飛行場航空写真 Wunderground天気予報

過去48時間のMETAR

飛行場予報(TAF)
発表時間: 1/20 21:10 +0530 (1/20 15:40 UTC)
予報対象時間: 20日23時 +0530 ~ 22日5時 +0530
風向・風速北東 6m/s 瞬間風速 10m/s
視程10km以上
少しの雲 雲底高度 550m
21日14時 +0530 ~ 21日20時 +0530 に 確率 40% で一時的に
全天の8割程度の雲 雲底高度 490m
少しの積乱雲 雲底高度 610m
全天の8割程度の雲 雲底高度 2,440m
TAF VCBI 201540Z 2018/2124 04012G20KT 9999 FEW018 TX31/2108Z TN23/2100Z
PROB40 TEMPO 2109/2115 BKN016 FEW020CB BKN080